Time,TemperatureF,DewpointF,PressureIn,WindDirection,WindDirectionDegrees,WindSpeedMPH,WindSpeedGustMPH,Humidity,HourlyPrecipIn,Conditions,Clouds,dailyrainin,SoftwareType,DateUTC
2013-02-24 00:03:00,33.9,26.2,26.73,North,0,5.8,5.8,73,0.00,,,0.00,VWS V14.01,2013-02-24 07:03:00,
2013-02-24 00:08:00,33.9,26.5,26.73,NNW,338,3.3,5.8,74,0.00,,,0.00,VWS V14.01,2013-02-24 07:08:00,
2013-02-24 00:13:00,33.9,26.8,26.73,NNW,338,4.4,6.2,75,0.00,,,0.00,VWS V14.01,2013-02-24 07:13:00,
2013-02-24 00:18:00,34.1,27.0,26.73,NNW,338,8.5,8.5,75,0.00,,,0.00,VWS V14.01,2013-02-24 07:18:00,
2013-02-24 00:23:00,34.3,27.9,26.73,NW,315,9.3,9.3,77,0.00,,,0.00,VWS V14.01,2013-02-24 07:23:00,
2013-02-24 00:28:00,34.3,27.9,26.73,NNW,338,8.9,9.3,77,0.00,,,0.00,VWS V14.01,2013-02-24 07:28:00,
2013-02-24 00:33:00,34.3,27.9,26.73,NNW,338,6.2,6.2,77,0.00,,,0.00,VWS V14.01,2013-02-24 07:33:00,
2013-02-24 00:38:00,34.3,27.9,26.73,NW,315,3.5,8.7,77,0.00,,,0.00,VWS V14.01,2013-02-24 07:38:00,
2013-02-24 00:43:00,34.3,28.2,26.73,NNW,338,5.8,8.7,78,0.00,,,0.00,VWS V14.01,2013-02-24 07:43:00,
2013-02-24 00:48:00,34.3,28.2,26.74,North,0,2.9,4.2,78,0.00,,,0.00,VWS V14.01,2013-02-24 07:48:00,
2013-02-24 00:53:00,34.5,28.4,26.73,NNW,338,4.4,5.1,78,0.00,,,0.00,VWS V14.01,2013-02-24 07:53:00,
2013-02-24 00:58:00,34.3,28.2,26.73,NNW,338,6.2,11.4,78,0.00,,,0.00,VWS V14.01,2013-02-24 07:58:00,
2013-02-24 01:03:00,34.5,28.4,26.74,North,0,4.6,4.6,78,0.00,,,0.00,VWS V14.01,2013-02-24 08:03:00,
2013-02-24 01:08:00,34.3,28.5,26.74,NNW,338,4.6,9.1,79,0.00,,,0.00,VWS V14.01,2013-02-24 08:08:00,
2013-02-24 01:13:00,34.3,28.5,26.74,WNW,292,9.8,9.8,79,0.00,,,0.00,VWS V14.01,2013-02-24 08:13:00,
2013-02-24 01:18:00,34.3,28.5,26.74,North,0,3.3,7.1,79,0.00,,,0.00,VWS V14.01,2013-02-24 08:18:00,
2013-02-24 01:23:00,34.3,28.5,26.74,NNW,338,7.6,7.6,79,0.00,,,0.00,VWS V14.01,2013-02-24 08:23:00,
2013-02-24 01:28:00,34.1,28.3,26.74,North,0,5.1,10.0,79,0.00,,,0.00,VWS V14.01,2013-02-24 08:28:00,
2013-02-24 01:33:00,33.9,28.1,26.75,North,0,7.3,7.3,79,0.00,,,0.00,VWS V14.01,2013-02-24 08:33:00,
2013-02-24 01:38:00,33.9,28.4,26.75,North,0,50.1,50.1,80,0.00,,,0.00,VWS V14.01,2013-02-24 08:38:00,
2013-02-24 01:43:00,33.8,28.3,26.75,NNW,338,6.7,50.1,80,0.00,,,0.00,VWS V14.01,2013-02-24 08:43:00,
2013-02-24 01:48:00,33.8,28.3,26.75,North,0,6.9,8.7,80,0.00,,,0.00,VWS V14.01,2013-02-24 08:48:00,
2013-02-24 01:53:00,33.8,28.3,26.75,NNE,22,9.1,9.1,80,0.00,,,0.00,VWS V14.01,2013-02-24 08:53:00,
2013-02-24 01:58:00,33.6,28.4,26.75,NNW,338,7.6,10.7,81,0.00,,,0.00,VWS V14.01,2013-02-24 08:58:00,
2013-02-24 02:03:00,33.8,28.6,26.75,NNW,338,6.7,6.7,81,0.00,,,0.00,VWS V14.01,2013-02-24 09:03:00,
2013-02-24 02:08:00,33.8,28.6,26.75,NW,315,10.5,10.7,81,0.00,,,0.00,VWS V14.01,2013-02-24 09:08:00,
2013-02-24 02:14:00,33.6,28.4,26.76,NNW,338,2.9,10.7,81,0.00,,,0.00,VWS V14.01,2013-02-24 09:14:00,
2013-02-24 02:19:00,33.8,28.6,26.75,NNE,22,8.5,10.7,81,0.00,,,0.00,VWS V14.01,2013-02-24 09:19:00,
2013-02-24 02:24:00,33.6,28.7,26.76,NNW,338,2.9,10.7,82,0.00,,,0.00,VWS V14.01,2013-02-24 09:24:00,
2013-02-24 02:29:00,33.6,28.7,26.76,ENE,68,8.0,10.7,82,0.00,,,0.00,VWS V14.01,2013-02-24 09:29:00,
2013-02-24 02:34:00,33.6,28.7,26.76,North,0,10.5,12.7,82,0.00,,,0.00,VWS V14.01,2013-02-24 09:34:00,
2013-02-24 02:39:00,33.4,28.2,26.76,NNE,22,7.6,12.7,81,0.00,,,0.00,VWS V14.01,2013-02-24 09:39:00,
2013-02-24 02:44:00,33.4,28.2,26.76,North,0,14.3,14.3,81,0.00,,,0.00,VWS V14.01,2013-02-24 09:44:00,
2013-02-24 02:49:00,33.2,27.7,26.76,NNW,338,7.6,7.6,80,0.00,,,0.00,VWS V14.01,2013-02-24 09:49:00,
2013-02-24 02:54:00,33.0,27.2,26.77,ENE,68,5.5,8.0,79,0.00,,,0.00,VWS V14.01,2013-02-24 09:54:00,
2013-02-24 02:59:00,33.0,27.2,26.77,NW,315,11.4,11.4,79,0.00,,,0.00,VWS V14.01,2013-02-24 09:59:00,
2013-02-24 03:04:00,32.9,27.1,26.77,NW,315,5.3,5.3,79,0.00,,,0.00,VWS V14.01,2013-02-24 10:04:00,
2013-02-24 03:09:00,32.7,26.9,26.77,NW,315,6.9,8.9,79,0.00,,,0.00,VWS V14.01,2013-02-24 10:09:00,
2013-02-24 03:14:00,32.7,26.9,26.78,WNW,292,10.9,10.9,79,0.00,,,0.00,VWS V14.01,2013-02-24 10:14:00,
2013-02-24 03:19:00,32.7,26.9,26.78,NW,315,3.5,10.7,79,0.00,,,0.00,VWS V14.01,2013-02-24 10:19:00,
2013-02-24 03:24:00,32.5,26.7,26.78,NNE,22,8.9,10.7,79,0.00,,,0.00,VWS V14.01,2013-02-24 10:24:00,
2013-02-24 03:29:00,32.5,26.7,26.78,NNW,338,9.3,10.7,79,0.00,,,0.00,VWS V14.01,2013-02-24 10:29:00,
2013-02-24 03:34:00,32.3,26.5,26.79,North,0,8.5,8.5,79,0.00,,,0.00,VWS V14.01,2013-02-24 10:34:00,
2013-02-24 03:39:00,32.3,26.5,26.79,North,0,3.1,8.9,79,0.00,,,0.00,VWS V14.01,2013-02-24 10:39:00,
2013-02-24 03:44:00,32.5,26.7,26.79,North,0,3.5,8.9,79,0.00,,,0.00,VWS V14.01,2013-02-24 10:44:00,
2013-02-24 03:49:00,32.3,26.2,26.79,NNW,338,7.8,8.2,78,0.00,,,0.00,VWS V14.01,2013-02-24 10:49:00,
2013-02-24 03:54:00,32.3,26.2,26.79,NNW,338,7.8,8.2,78,0.00,,,0.00,VWS V14.01,2013-02-24 10:54:00,
2013-02-24 03:59:00,32.3,26.2,26.80,ENE,68,4.0,8.2,78,0.00,,,0.00,VWS V14.01,2013-02-24 10:59:00,
2013-02-24 04:04:00,32.3,26.2,26.80,NW,315,4.0,11.4,78,0.00,,,0.00,VWS V14.01,2013-02-24 11:04:00,
2013-02-24 04:09:00,32.3,26.2,26.80,North,0,4.6,11.4,78,0.00,,,0.00,VWS V14.01,2013-02-24 11:09:00,
2013-02-24 04:14:00,32.3,26.2,26.80,North,0,8.2,11.4,78,0.00,,,0.00,VWS V14.01,2013-02-24 11:14:00,
2013-02-24 04:19:00,32.3,26.2,26.80,NNW,338,10.9,14.3,78,0.00,,,0.00,VWS V14.01,2013-02-24 11:19:00,
2013-02-24 04:24:00,32.1,26.0,26.80,NNE,22,7.6,14.3,78,0.00,,,0.00,VWS V14.01,2013-02-24 11:24:00,
2013-02-24 04:29:00,32.1,26.0,26.80,NE,45,9.6,14.3,78,0.00,,,0.00,VWS V14.01,2013-02-24 11:29:00,
2013-02-24 04:34:00,32.1,26.0,26.80,WNW,292,4.0,7.8,78,0.00,,,0.00,VWS V14.01,2013-02-24 11:34:00,
2013-02-24 04:39:00,32.1,26.3,26.80,NNE,22,6.2,7.8,79,0.00,,,0.00,VWS V14.01,2013-02-24 11:39:00,
2013-02-24 04:44:00,32.1,26.3,26.80,NE,45,9.3,10.5,79,0.00,,,0.00,VWS V14.01,2013-02-24 11:44:00,
2013-02-24 04:49:00,32.1,26.3,26.80,NNW,338,14.5,14.5,79,0.00,,,0.00,VWS V14.01,2013-02-24 11:49:00,
2013-02-24 04:54:00,32.1,26.3,26.81,North,0,9.3,15.4,79,0.00,,,0.00,VWS V14.01,2013-02-24 11:54:00,
2013-02-24 04:59:00,32.1,26.3,26.81,NNW,338,5.3,15.4,79,0.00,,,0.00,VWS V14.01,2013-02-24 11:59:00,
2013-02-24 05:04:00,32.1,26.3,26.81,NW,315,4.4,9.8,79,0.00,,,0.00,VWS V14.01,2013-02-24 12:04:00,
2013-02-24 05:10:00,31.8,26.0,26.81,ENE,68,2.9,13.1,79,0.00,,,0.00,VWS V14.01,2013-02-24 12:10:00,
2013-02-24 05:15:00,31.8,26.0,26.81,ENE,68,5.3,14.0,79,0.00,,,0.00,VWS V14.01,2013-02-24 12:15:00,
2013-02-24 05:20:00,31.8,26.4,26.82,NW,315,6.4,6.4,80,0.00,,,0.00,VWS V14.01,2013-02-24 12:20:00,
2013-02-24 05:25:00,31.8,26.4,26.82,NW,315,8.5,8.5,80,0.00,,,0.00,VWS V14.01,2013-02-24 12:25:00,
2013-02-24 05:30:00,31.8,26.4,26.82,NW,315,4.9,10.9,80,0.00,,,0.00,VWS V14.01,2013-02-24 12:30:00,
2013-02-24 05:36:00,31.8,26.4,26.82,North,0,9.6,9.6,80,0.00,,,0.00,VWS V14.01,2013-02-24 12:36:00,
2013-02-24 05:41:00,31.6,26.1,26.83,North,0,10.2,11.4,80,0.00,,,0.00,VWS V14.01,2013-02-24 12:41:00,
2013-02-24 05:46:00,31.6,26.1,26.83,NNW,338,12.9,12.9,80,0.00,,,0.00,VWS V14.01,2013-02-24 12:46:00,
2013-02-24 05:51:00,31.8,26.4,26.83,NNE,22,8.2,12.9,80,0.00,,,0.00,VWS V14.01,2013-02-24 12:51:00,
2013-02-24 05:56:00,31.8,26.4,26.84,North,0,9.1,12.9,80,0.00,,,0.00,VWS V14.01,2013-02-24 12:56:00,
2013-02-24 06:01:00,31.8,26.4,26.83,NNE,22,7.6,7.6,80,0.00,,,0.00,VWS V14.01,2013-02-24 13:01:00,
2013-02-24 06:06:00,31.8,26.4,26.84,North,0,9.1,9.1,80,0.00,,,0.00,VWS V14.01,2013-02-24 13:06:00,
2013-02-24 06:11:00,31.6,26.1,26.84,WNW,292,10.5,10.5,80,0.00,,,0.00,VWS V14.01,2013-02-24 13:11:00,
2013-02-24 06:16:00,31.6,26.1,26.84,NNE,22,8.2,8.2,80,0.00,,,0.00,VWS V14.01,2013-02-24 13:16:00,
2013-02-24 06:21:00,31.6,26.1,26.84,NNW,338,4.4,8.2,80,0.00,,,0.00,VWS V14.01,2013-02-24 13:21:00,
2013-02-24 06:27:00,31.6,26.1,26.84,NNE,22,9.1,9.1,80,0.00,,,0.00,VWS V14.01,2013-02-24 13:27:00,
2013-02-24 06:32:00,31.6,26.1,26.84,North,0,6.0,6.0,80,0.00,,,0.00,VWS V14.01,2013-02-24 13:32:00,
2013-02-24 06:37:00,31.6,26.1,26.84,North,0,10.9,10.9,80,0.00,,,0.00,VWS V14.01,2013-02-24 13:37:00,
2013-02-24 06:42:00,31.6,26.1,26.84,NE,45,6.9,10.9,80,0.00,,,0.00,VWS V14.01,2013-02-24 13:42:00,
2013-02-24 06:47:00,31.8,26.4,26.84,NE,45,3.5,3.5,80,0.00,,,0.00,VWS V14.01,2013-02-24 13:47:00,
2013-02-24 06:52:00,31.6,26.5,26.84,NNW,338,10.7,10.7,81,0.00,,,0.00,VWS V14.01,2013-02-24 13:52:00,
2013-02-24 06:57:00,31.8,26.6,26.85,North,0,10.5,12.9,81,0.00,,,0.00,VWS V14.01,2013-02-24 13:57:00,
2013-02-24 07:02:00,31.8,26.6,26.85,NNE,22,7.8,10.9,81,0.00,,,0.00,VWS V14.01,2013-02-24 14:02:00,
2013-02-24 07:07:00,31.8,26.6,26.85,NNW,338,13.4,13.4,81,0.00,,,0.00,VWS V14.01,2013-02-24 14:07:00,
2013-02-24 07:12:00,31.8,26.6,26.86,West,270,5.8,13.4,81,0.00,,,0.00,VWS V14.01,2013-02-24 14:12:00,
2013-02-24 07:17:00,31.8,26.4,26.85,NNW,338,10.5,10.5,80,0.00,,,0.00,VWS V14.01,2013-02-24 14:17:00,
2013-02-24 07:22:00,31.8,26.4,26.85,NW,315,12.7,12.7,80,0.00,,,0.00,VWS V14.01,2013-02-24 14:22:00,
2013-02-24 07:27:00,32.1,26.6,26.86,North,0,12.9,12.9,80,0.00,,,0.00,VWS V14.01,2013-02-24 14:27:00,
2013-02-24 07:32:00,32.1,26.3,26.86,NNW,338,17.6,17.6,79,0.00,,,0.00,VWS V14.01,2013-02-24 14:32:00,
2013-02-24 07:37:00,32.1,26.3,26.86,WNW,292,8.9,17.6,79,0.00,,,0.00,VWS V14.01,2013-02-24 14:37:00,
2013-02-24 07:42:00,32.1,26.3,26.87,North,0,12.0,17.6,79,0.00,,,0.00,VWS V14.01,2013-02-24 14:42:00,
2013-02-24 07:48:00,32.1,26.3,26.87,North,0,9.3,16.5,79,0.00,,,0.00,VWS V14.01,2013-02-24 14:48:00,
2013-02-24 07:53:00,32.3,26.5,26.87,North,0,12.9,16.5,79,0.00,,,0.00,VWS V14.01,2013-02-24 14:53:00,
2013-02-24 07:58:00,32.3,26.5,26.87,NNE,22,12.9,16.5,79,0.00,,,0.00,VWS V14.01,2013-02-24 14:58:00,
2013-02-24 08:03:00,32.3,26.5,26.87,NNW,338,11.1,11.1,79,0.00,,,0.00,VWS V14.01,2013-02-24 15:03:00,
2013-02-24 08:08:00,32.1,26.3,26.88,NNW,338,7.8,11.1,79,0.00,,,0.00,VWS V14.01,2013-02-24 15:08:00,
2013-02-24 08:13:00,32.3,26.5,26.88,NW,315,10.0,11.1,79,0.00,,,0.00,VWS V14.01,2013-02-24 15:13:00,
2013-02-24 08:18:00,32.3,26.5,26.88,West,270,9.1,14.7,79,0.00,,,0.00,VWS V14.01,2013-02-24 15:18:00,
2013-02-24 08:23:00,32.5,26.7,26.88,NW,315,5.8,14.7,79,0.00,,,0.00,VWS V14.01,2013-02-24 15:23:00,
2013-02-24 08:28:00,32.5,26.7,26.88,North,0,4.4,14.7,79,0.00,,,0.00,VWS V14.01,2013-02-24 15:28:00,
2013-02-24 08:33:00,32.7,26.9,26.88,North,0,16.1,16.1,79,0.00,,,0.00,VWS V14.01,2013-02-24 15:33:00,
2013-02-24 08:38:00,32.7,26.9,26.88,NNW,338,5.8,16.1,79,0.00,,,0.00,VWS V14.01,2013-02-24 15:38:00,
2013-02-24 08:43:00,32.9,27.1,26.88,NE,45,6.7,16.1,79,0.00,,,0.00,VWS V14.01,2013-02-24 15:43:00,
2013-02-24 08:48:00,33.0,26.9,26.88,NNW,338,12.9,12.9,78,0.00,,,0.00,VWS V14.01,2013-02-24 15:48:00,
2013-02-24 08:53:00,33.2,26.5,26.88,NE,45,5.1,12.9,76,0.00,,,0.00,VWS V14.01,2013-02-24 15:53:00,
2013-02-24 08:58:00,33.2,26.5,26.88,NW,315,12.0,15.4,76,0.00,,,0.00,VWS V14.01,2013-02-24 15:58:00,
2013-02-24 09:03:00,33.4,26.3,26.88,NE,45,14.0,14.5,75,0.00,,,0.00,VWS V14.01,2013-02-24 16:03:00,
2013-02-24 09:08:00,33.4,26.0,26.88,North,0,10.2,14.5,74,0.00,,,0.00,VWS V14.01,2013-02-24 16:08:00,
2013-02-24 09:13:00,33.6,25.9,26.88,NNE,22,9.8,14.5,73,0.00,,,0.00,VWS V14.01,2013-02-24 16:13:00,
2013-02-24 09:18:00,33.8,26.1,26.89,SW,225,4.4,12.3,73,0.00,,,0.00,VWS V14.01,2013-02-24 16:18:00,
2013-02-24 09:23:00,34.1,26.4,26.88,NW,315,11.1,17.0,73,0.00,,,0.00,VWS V14.01,2013-02-24 16:23:00,
2013-02-24 09:28:00,34.3,26.6,26.89,SW,225,5.1,17.0,73,0.00,,,0.00,VWS V14.01,2013-02-24 16:28:00,
2013-02-24 09:33:00,34.3,26.2,26.89,NNW,338,16.7,16.7,72,0.00,,,0.00,VWS V14.01,2013-02-24 16:33:00,
2013-02-24 09:38:00,34.5,26.1,26.89,NNW,338,6.9,19.4,71,0.00,,,0.00,VWS V14.01,2013-02-24 16:38:00,
2013-02-24 09:43:00,34.5,26.1,26.89,North,0,10.0,19.4,71,0.00,,,0.00,VWS V14.01,2013-02-24 16:43:00,
2013-02-24 09:48:00,34.7,26.3,26.89,NNW,338,12.7,12.7,71,0.00,,,0.00,VWS V14.01,2013-02-24 16:48:00,
2013-02-24 09:54:00,34.8,26.0,26.90,NNW,338,4.2,12.7,70,0.00,,,0.00,VWS V14.01,2013-02-24 16:54:00,
2013-02-24 09:59:00,34.8,26.0,26.89,NW,315,12.3,12.7,70,0.00,,,0.00,VWS V14.01,2013-02-24 16:59:00,
2013-02-24 10:04:00,34.8,26.0,26.90,North,0,12.7,12.7,70,0.00,,,0.00,VWS V14.01,2013-02-24 17:04:00,
2013-02-24 10:09:00,35.0,26.2,26.90,NNW,338,17.6,17.6,70,0.00,,,0.00,VWS V14.01,2013-02-24 17:09:00,
2013-02-24 10:14:00,35.2,26.4,26.89,North,0,8.5,17.6,70,0.00,,,0.00,VWS V14.01,2013-02-24 17:14:00,
2013-02-24 10:19:00,35.2,26.4,26.90,NW,315,7.1,11.8,70,0.00,,,0.00,VWS V14.01,2013-02-24 17:19:00,
2013-02-24 10:24:00,35.2,26.4,26.90,NNW,338,18.1,18.1,70,0.00,,,0.00,VWS V14.01,2013-02-24 17:24:00,
2013-02-24 10:29:00,35.2,26.4,26.90,NE,45,14.5,18.1,70,0.00,,,0.00,VWS V14.01,2013-02-24 17:29:00,
2013-02-24 10:34:00,35.2,26.4,26.90,North,0,10.5,11.1,70,0.00,,,0.00,VWS V14.01,2013-02-24 17:34:00,
2013-02-24 10:39:00,35.2,26.8,26.91,NNW,338,15.6,15.6,71,0.00,,,0.00,VWS V14.01,2013-02-24 17:39:00,
2013-02-24 10:44:00,35.2,26.8,26.91,NNW,338,5.5,18.3,71,0.00,,,0.00,VWS V14.01,2013-02-24 17:44:00,
2013-02-24 10:49:00,35.4,27.0,26.91,WSW,248,4.4,12.7,71,0.00,,,0.00,VWS V14.01,2013-02-24 17:49:00,
2013-02-24 10:54:00,35.7,27.6,26.91,North,0,10.7,12.7,72,0.00,,,0.00,VWS V14.01,2013-02-24 17:54:00,
2013-02-24 10:59:00,35.7,26.9,26.91,NW,315,17.4,17.4,70,0.00,,,0.00,VWS V14.01,2013-02-24 17:59:00,
2013-02-24 11:04:00,35.9,27.1,26.91,NNE,22,12.3,17.6,70,0.00,,,0.00,VWS V14.01,2013-02-24 18:04:00,
2013-02-24 11:09:00,36.1,27.3,26.91,NW,315,6.0,17.6,70,0.00,,,0.00,VWS V14.01,2013-02-24 18:09:00,
2013-02-24 11:14:00,36.1,26.9,26.92,West,270,10.2,17.6,69,0.00,,,0.00,VWS V14.01,2013-02-24 18:14:00,
2013-02-24 11:19:00,36.1,26.9,26.91,NNW,338,12.3,16.7,69,0.00,,,0.00,VWS V14.01,2013-02-24 18:19:00,
2013-02-24 11:24:00,35.9,26.4,26.91,WNW,292,18.1,18.1,68,0.00,,,0.00,VWS V14.01,2013-02-24 18:24:00,
2013-02-24 11:29:00,35.9,26.4,26.91,NNW,338,11.1,18.1,68,0.00,,,0.00,VWS V14.01,2013-02-24 18:29:00,
2013-02-24 11:34:00,36.1,26.6,26.91,NE,45,12.5,17.4,68,0.00,,,0.00,VWS V14.01,2013-02-24 18:34:00,
2013-02-24 11:39:00,36.1,26.2,26.91,NNW,338,20.5,22.8,67,0.00,,,0.00,VWS V14.01,2013-02-24 18:39:00,
2013-02-24 11:44:00,36.1,26.2,26.92,NNE,22,15.4,23.7,67,0.00,,,0.00,VWS V14.01,2013-02-24 18:44:00,
2013-02-24 11:49:00,35.7,25.8,26.91,North,0,13.4,15.4,67,0.00,,,0.00,VWS V14.01,2013-02-24 18:49:00,
2013-02-24 11:54:00,35.4,25.5,26.91,NNW,338,12.0,21.4,67,0.00,,,0.00,VWS V14.01,2013-02-24 18:54:00,
2013-02-24 11:59:00,35.4,25.9,26.91,North,0,11.6,21.4,68,0.00,,,0.00,VWS V14.01,2013-02-24 18:59:00,
2013-02-24 12:05:00,35.4,25.9,26.91,NW,315,9.3,11.6,68,0.00,,,0.00,VWS V14.01,2013-02-24 19:05:00,
2013-02-24 12:10:00,35.4,25.9,26.92,NNE,22,4.6,14.3,68,0.00,,,0.00,VWS V14.01,2013-02-24 19:10:00,
2013-02-24 12:15:00,35.4,25.5,26.92,NNW,338,19.4,19.4,67,0.00,,,0.00,VWS V14.01,2013-02-24 19:15:00,
2013-02-24 12:20:00,35.4,25.5,26.91,NNE,22,16.5,19.4,67,0.00,,,0.00,VWS V14.01,2013-02-24 19:20:00,
2013-02-24 12:25:00,35.4,25.9,26.91,North,0,14.0,19.4,68,0.00,,,0.00,VWS V14.01,2013-02-24 19:25:00,
2013-02-24 12:30:00,35.4,25.5,26.92,North,0,9.8,19.4,67,0.00,,,0.00,VWS V14.01,2013-02-24 19:30:00,
2013-02-24 12:35:00,35.6,25.7,26.91,NNE,22,11.4,11.4,67,0.00,,,0.00,VWS V14.01,2013-02-24 19:35:00,
2013-02-24 12:40:00,35.7,25.8,26.92,North,0,5.8,12.9,67,0.00,,,0.00,VWS V14.01,2013-02-24 19:40:00,
2013-02-24 12:45:00,35.6,25.7,26.91,NW,315,20.5,20.5,67,0.00,,,0.00,VWS V14.01,2013-02-24 19:45:00,
2013-02-24 12:50:00,35.4,25.5,26.91,WNW,292,5.5,20.5,67,0.00,,,0.00,VWS V14.01,2013-02-24 19:50:00,
2013-02-24 12:55:00,35.2,25.7,26.91,North,0,11.6,20.5,68,0.00,,,0.00,VWS V14.01,2013-02-24 19:55:00,
2013-02-24 13:00:00,35.2,25.7,26.91,NNW,338,17.2,17.2,68,0.00,,,0.00,VWS V14.01,2013-02-24 20:00:00,
2013-02-24 13:05:00,35.0,25.5,26.91,NNW,338,8.0,17.2,68,0.00,,,0.00,VWS V14.01,2013-02-24 20:05:00,
2013-02-24 13:10:00,35.2,25.7,26.91,WSW,248,7.8,17.2,68,0.00,,,0.00,VWS V14.01,2013-02-24 20:10:00,
2013-02-24 13:15:00,35.2,25.7,26.91,North,0,12.7,12.7,68,0.00,,,0.00,VWS V14.01,2013-02-24 20:15:00,
2013-02-24 13:20:00,35.4,25.9,26.91,NW,315,16.7,16.7,68,0.00,,,0.00,VWS V14.01,2013-02-24 20:20:00,
2013-02-24 13:25:00,35.7,26.2,26.91,North,0,14.5,16.7,68,0.00,,,0.00,VWS V14.01,2013-02-24 20:25:00,
2013-02-24 13:30:00,36.3,26.8,26.90,ESE,112,5.1,5.1,68,0.00,,,0.00,VWS V14.01,2013-02-24 20:30:00,
2013-02-24 13:35:00,37.2,26.9,26.91,North,0,14.3,18.3,66,0.00,,,0.00,VWS V14.01,2013-02-24 20:35:00,
2013-02-24 13:40:00,37.5,27.2,26.90,WNW,292,14.5,18.3,66,0.00,,,0.00,VWS V14.01,2013-02-24 20:40:00,
2013-02-24 13:45:00,37.7,27.0,26.91,NW,315,14.7,14.7,65,0.00,,,0.00,VWS V14.01,2013-02-24 20:45:00,
2013-02-24 13:50:00,37.5,26.8,26.91,NW,315,10.9,14.7,65,0.00,,,0.00,VWS V14.01,2013-02-24 20:50:00,
2013-02-24 13:55:00,37.7,27.0,26.91,North,0,15.2,15.2,65,0.00,,,0.00,VWS V14.01,2013-02-24 20:55:00,
2013-02-24 14:00:00,37.5,26.8,26.91,NNW,338,11.1,11.1,65,0.00,,,0.00,VWS V14.01,2013-02-24 21:00:00,
2013-02-24 14:05:00,37.0,26.3,26.91,WNW,292,9.3,13.8,65,0.00,,,0.00,VWS V14.01,2013-02-24 21:05:00,
2013-02-24 14:10:00,36.3,26.0,26.91,NNW,338,5.5,13.8,66,0.00,,,0.00,VWS V14.01,2013-02-24 21:10:00,
2013-02-24 14:15:00,35.9,25.7,26.91,NW,315,11.6,11.6,66,0.00,,,0.00,VWS V14.01,2013-02-24 21:15:00,
2013-02-24 14:20:00,35.6,25.4,26.91,WNW,292,4.6,12.9,66,0.00,,,0.00,VWS V14.01,2013-02-24 21:20:00,
2013-02-24 14:25:00,35.2,25.4,26.91,NNW,338,10.2,12.9,67,0.00,,,0.00,VWS V14.01,2013-02-24 21:25:00,
2013-02-24 14:30:00,35.2,25.4,26.91,North,0,8.2,8.2,67,0.00,,,0.00,VWS V14.01,2013-02-24 21:30:00,
2013-02-24 14:36:00,35.2,25.4,26.91,NNW,338,12.9,15.4,67,0.00,,,0.00,VWS V14.01,2013-02-24 21:36:00,
2013-02-24 14:41:00,35.2,25.4,26.91,NE,45,5.1,15.4,67,0.00,,,0.00,VWS V14.01,2013-02-24 21:41:00,
2013-02-24 14:46:00,35.2,25.4,26.91,North,0,9.1,9.1,67,0.00,,,0.00,VWS V14.01,2013-02-24 21:46:00,
2013-02-24 14:51:00,35.2,25.4,26.91,NW,315,8.5,11.8,67,0.00,,,0.00,VWS V14.01,2013-02-24 21:51:00,
2013-02-24 14:56:00,35.2,25.4,26.91,WSW,248,16.7,16.7,67,0.00,,,0.00,VWS V14.01,2013-02-24 21:56:00,
2013-02-24 15:01:00,35.2,25.4,26.91,NW,315,8.5,8.5,67,0.00,,,0.00,VWS V14.01,2013-02-24 22:01:00,
2013-02-24 15:06:00,35.2,25.4,26.91,NNW,338,14.5,14.5,67,0.00,,,0.00,VWS V14.01,2013-02-24 22:06:00,
2013-02-24 15:11:00,34.8,25.0,26.91,NW,315,8.7,14.5,67,0.00,,,0.00,VWS V14.01,2013-02-24 22:11:00,
2013-02-24 15:16:00,34.8,25.0,26.91,North,0,6.4,6.4,67,0.00,,,0.00,VWS V14.01,2013-02-24 22:16:00,
2013-02-24 15:21:00,34.8,25.0,26.91,WNW,292,3.3,8.9,67,0.00,,,0.00,VWS V14.01,2013-02-24 22:21:00,
2013-02-24 15:26:00,34.8,25.0,26.91,NE,45,14.5,14.5,67,0.00,,,0.00,VWS V14.01,2013-02-24 22:26:00,
2013-02-24 15:31:00,35.0,25.2,26.91,NNW,338,10.5,13.6,67,0.00,,,0.00,VWS V14.01,2013-02-24 22:31:00,
2013-02-24 15:36:00,35.2,25.4,26.91,ENE,68,11.4,13.6,67,0.00,,,0.00,VWS V14.01,2013-02-24 22:36:00,
2013-02-24 15:41:00,35.4,25.2,26.91,North,0,10.5,13.6,66,0.00,,,0.00,VWS V14.01,2013-02-24 22:41:00,
2013-02-24 15:46:00,35.7,25.1,26.91,NW,315,8.9,10.0,65,0.00,,,0.00,VWS V14.01,2013-02-24 22:46:00,
2013-02-24 15:51:00,35.7,25.1,26.91,North,0,4.2,12.7,65,0.00,,,0.00,VWS V14.01,2013-02-24 22:51:00,
2013-02-24 15:56:00,35.7,25.1,26.92,WNW,292,5.1,14.0,65,0.00,,,0.00,VWS V14.01,2013-02-24 22:56:00,
2013-02-24 16:01:00,35.7,24.7,26.92,NW,315,8.9,14.5,64,0.00,,,0.00,VWS V14.01,2013-02-24 23:01:00,
2013-02-24 16:06:00,35.7,24.7,26.92,NNW,338,8.9,14.5,64,0.00,,,0.00,VWS V14.01,2013-02-24 23:06:00,
2013-02-24 16:11:00,35.7,24.7,26.92,NW,315,7.3,14.5,64,0.00,,,0.00,VWS V14.01,2013-02-24 23:11:00,
2013-02-24 16:16:00,35.7,24.7,26.92,NNW,338,10.0,10.9,64,0.00,,,0.00,VWS V14.01,2013-02-24 23:16:00,
2013-02-24 16:21:00,35.7,24.7,26.92,WNW,292,9.1,10.9,64,0.00,,,0.00,VWS V14.01,2013-02-24 23:21:00,
2013-02-24 16:26:00,35.7,24.7,26.93,NNW,338,11.8,16.1,64,0.00,,,0.00,VWS V14.01,2013-02-24 23:26:00,
2013-02-24 16:31:00,35.7,24.4,26.93,NW,315,4.6,10.5,63,0.00,,,0.00,VWS V14.01,2013-02-24 23:31:00,
2013-02-24 16:36:00,35.6,24.3,26.93,NNW,338,10.0,10.5,63,0.00,,,0.00,VWS V14.01,2013-02-24 23:36:00,
2013-02-24 16:41:00,35.4,24.5,26.93,WNW,292,11.8,11.8,64,0.00,,,0.00,VWS V14.01,2013-02-24 23:41:00,
2013-02-24 16:46:00,35.4,24.5,26.93,North,0,7.3,7.6,64,0.00,,,0.00,VWS V14.01,2013-02-24 23:46:00,
2013-02-24 16:51:00,35.4,24.5,26.93,NNE,22,7.1,7.6,64,0.00,,,0.00,VWS V14.01,2013-02-24 23:51:00,
2013-02-24 16:56:00,35.2,24.3,26.94,NNE,22,8.9,8.9,64,0.00,,,0.00,VWS V14.01,2013-02-24 23:56:00,
2013-02-24 17:01:00,35.0,24.1,26.94,WNW,292,8.9,8.9,64,0.00,,,0.00,VWS V14.01,2013-02-25 00:01:00,
2013-02-24 17:06:00,34.8,23.9,26.94,NW,315,9.8,9.8,64,0.00,,,0.00,VWS V14.01,2013-02-25 00:06:00,
2013-02-24 17:12:00,34.8,23.9,26.94,NW,315,10.9,10.9,64,0.00,,,0.00,VWS V14.01,2013-02-25 00:12:00,
2013-02-24 17:17:00,34.8,23.9,26.94,NNW,338,7.8,7.8,64,0.00,,,0.00,VWS V14.01,2013-02-25 00:17:00,
2013-02-24 17:22:00,34.7,23.4,26.94,NNW,338,8.0,8.5,63,0.00,,,0.00,VWS V14.01,2013-02-25 00:22:00,
2013-02-24 17:27:00,34.5,23.2,26.94,NNW,338,6.0,8.5,63,0.00,,,0.00,VWS V14.01,2013-02-25 00:27:00,
2013-02-24 17:32:00,34.3,23.0,26.94,NNW,338,10.0,10.0,63,0.00,,,0.00,VWS V14.01,2013-02-25 00:32:00,
2013-02-24 17:37:00,34.3,23.0,26.94,NW,315,6.9,10.0,63,0.00,,,0.00,VWS V14.01,2013-02-25 00:37:00,
2013-02-24 17:42:00,34.1,22.8,26.94,North,0,6.0,10.0,63,0.00,,,0.00,VWS V14.01,2013-02-25 00:42:00,
2013-02-24 17:47:00,34.1,22.8,26.94,WNW,292,2.2,3.5,63,0.00,,,0.00,VWS V14.01,2013-02-25 00:47:00,
2013-02-24 17:52:00,33.9,22.6,26.94,NW,315,3.3,4.0,63,0.00,,,0.00,VWS V14.01,2013-02-25 00:52:00,
2013-02-24 17:57:00,33.8,22.5,26.94,WNW,292,9.3,9.3,63,0.00,,,0.00,VWS V14.01,2013-02-25 00:57:00,
2013-02-24 18:02:00,33.6,22.4,26.94,NNW,338,3.1,3.5,63,0.00,,,0.00,VWS V14.01,2013-02-25 01:02:00,
2013-02-24 18:07:00,33.6,22.4,26.95,WSW,248,0.0,6.7,63,0.00,,,0.00,VWS V14.01,2013-02-25 01:07:00,
2013-02-24 18:12:00,33.6,22.4,26.95,NW,315,5.3,6.7,63,0.00,,,0.00,VWS V14.01,2013-02-25 01:12:00,
2013-02-24 18:17:00,33.4,22.2,26.95,NW,315,3.1,4.4,63,0.00,,,0.00,VWS V14.01,2013-02-25 01:17:00,
2013-02-24 18:22:00,33.2,22.0,26.95,NW,315,3.1,9.1,63,0.00,,,0.00,VWS V14.01,2013-02-25 01:22:00,
2013-02-24 18:27:00,33.0,21.8,26.95,WNW,292,1.3,9.1,63,0.00,,,0.00,VWS V14.01,2013-02-25 01:27:00,
2013-02-24 18:32:00,32.9,21.7,26.95,NW,315,2.9,4.9,63,0.00,,,0.00,VWS V14.01,2013-02-25 01:32:00,
2013-02-24 18:37:00,32.5,21.3,26.95,NW,315,6.2,6.2,63,0.00,,,0.00,VWS V14.01,2013-02-25 01:37:00,
2013-02-24 18:42:00,32.3,21.5,26.96,WNW,292,4.6,6.2,64,0.00,,,0.00,VWS V14.01,2013-02-25 01:42:00,
2013-02-24 18:47:00,32.1,21.3,26.96,WNW,292,0.0,0.0,64,0.00,,,0.00,VWS V14.01,2013-02-25 01:47:00,
2013-02-24 18:52:00,31.6,20.8,26.96,WNW,292,0.0,0.8,64,0.00,,,0.00,VWS V14.01,2013-02-25 01:52:00,
2013-02-24 18:57:00,31.2,20.5,26.96,WNW,292,0.0,0.8,64,0.00,,,0.00,VWS V14.01,2013-02-25 01:57:00,
2013-02-24 19:02:00,31.1,20.4,26.96,WNW,292,0.0,0.0,64,0.00,,,0.00,VWS V14.01,2013-02-25 02:02:00,
2013-02-24 19:07:00,30.7,20.0,26.96,WNW,292,0.0,0.0,64,0.00,,,0.00,VWS V14.01,2013-02-25 02:07:00,
2013-02-24 19:12:00,30.3,19.6,26.96,WNW,292,2.2,2.2,64,0.00,,,0.00,VWS V14.01,2013-02-25 02:12:00,
2013-02-24 19:17:00,30.0,19.3,26.96,NW,315,0.0,0.0,64,0.00,,,0.00,VWS V14.01,2013-02-25 02:17:00,
2013-02-24 19:22:00,29.6,19.3,26.96,WNW,292,0.0,0.0,65,0.00,,,0.00,VWS V14.01,2013-02-25 02:22:00,
2013-02-24 19:27:00,29.4,19.1,26.96,WNW,292,0.0,2.0,65,0.00,,,0.00,VWS V14.01,2013-02-25 02:27:00,
2013-02-24 19:32:00,29.1,18.8,26.96,WNW,292,0.0,1.3,65,0.00,,,0.00,VWS V14.01,2013-02-25 02:32:00,
2013-02-24 19:37:00,28.7,18.4,26.96,WNW,292,0.0,1.3,65,0.00,,,0.00,VWS V14.01,2013-02-25 02:37:00,
2013-02-24 19:43:00,28.5,18.6,26.96,WNW,292,0.0,1.3,66,0.00,,,0.00,VWS V14.01,2013-02-25 02:43:00,
2013-02-24 19:48:00,28.2,18.3,26.96,WNW,292,0.0,0.0,66,0.00,,,0.00,VWS V14.01,2013-02-25 02:48:00,
2013-02-24 19:53:00,28.0,18.5,26.96,NW,315,0.0,0.0,67,0.00,,,0.00,VWS V14.01,2013-02-25 02:53:00,
2013-02-24 19:58:00,27.6,18.1,26.96,NW,315,0.0,0.0,67,0.00,,,0.00,VWS V14.01,2013-02-25 02:58:00,
2013-02-24 20:03:00,27.3,17.8,26.96,NW,315,0.0,0.0,67,0.00,,,0.00,VWS V14.01,2013-02-25 03:03:00,
2013-02-24 20:08:00,27.1,18.0,26.96,NW,315,0.0,0.0,68,0.00,,,0.00,VWS V14.01,2013-02-25 03:08:00,
2013-02-24 20:13:00,26.7,17.6,26.96,NW,315,0.0,0.0,68,0.00,,,0.00,VWS V14.01,2013-02-25 03:13:00,
2013-02-24 20:18:00,26.6,17.5,26.96,NW,315,0.0,0.0,68,0.00,,,0.00,VWS V14.01,2013-02-25 03:18:00,
2013-02-24 20:23:00,26.2,17.1,26.96,NW,315,0.0,0.0,68,0.00,,,0.00,VWS V14.01,2013-02-25 03:23:00,
2013-02-24 20:28:00,25.7,16.6,26.96,West,270,0.0,0.0,68,0.00,,,0.00,VWS V14.01,2013-02-25 03:28:00,
2013-02-24 20:33:00,25.3,16.2,26.96,West,270,0.0,0.0,68,0.00,,,0.00,VWS V14.01,2013-02-25 03:33:00,
2013-02-24 20:38:00,24.4,15.0,26.96,West,270,0.0,0.0,67,0.00,,,0.00,VWS V14.01,2013-02-25 03:38:00,
2013-02-24 20:43:00,24.0,15.0,26.96,West,270,0.0,0.0,68,0.00,,,0.00,VWS V14.01,2013-02-25 03:43:00,
2013-02-24 20:48:00,23.5,14.5,26.96,West,270,0.0,0.0,68,0.00,,,0.00,VWS V14.01,2013-02-25 03:48:00,
2013-02-24 20:53:00,23.3,14.6,26.96,West,270,0.0,0.0,69,0.00,,,0.00,VWS V14.01,2013-02-25 03:53:00,
2013-02-24 20:58:00,23.0,14.7,26.95,West,270,0.0,0.0,70,0.00,,,0.00,VWS V14.01,2013-02-25 03:58:00,
2013-02-24 21:03:00,22.8,14.5,26.95,West,270,0.0,0.0,70,0.00,,,0.00,VWS V14.01,2013-02-25 04:03:00,
2013-02-24 21:08:00,22.6,14.6,26.96,West,270,0.0,0.0,71,0.00,,,0.00,VWS V14.01,2013-02-25 04:08:00,
2013-02-24 21:13:00,22.6,14.3,26.96,West,270,0.0,0.0,70,0.00,,,0.00,VWS V14.01,2013-02-25 04:13:00,
2013-02-24 21:18:00,22.2,14.2,26.96,West,270,0.0,0.0,71,0.00,,,0.00,VWS V14.01,2013-02-25 04:18:00,
2013-02-24 21:24:00,22.2,14.2,26.96,West,270,0.0,0.0,71,0.00,,,0.00,VWS V14.01,2013-02-25 04:24:00,
2013-02-24 21:29:00,22.1,14.1,26.97,West,270,0.0,0.0,71,0.00,,,0.00,VWS V14.01,2013-02-25 04:29:00,
2013-02-24 21:34:00,22.1,14.5,26.97,West,270,0.0,0.0,72,0.00,,,0.00,VWS V14.01,2013-02-25 04:34:00,
2013-02-24 21:39:00,22.1,14.5,26.97,WNW,292,0.0,0.0,72,0.00,,,0.00,VWS V14.01,2013-02-25 04:39:00,
2013-02-24 21:44:00,21.9,14.3,26.98,WNW,292,0.0,0.0,72,0.00,,,0.00,VWS V14.01,2013-02-25 04:44:00,
2013-02-24 21:49:00,21.9,14.3,26.97,WNW,292,0.0,0.0,72,0.00,,,0.00,VWS V14.01,2013-02-25 04:49:00,
2013-02-24 21:54:00,21.7,14.1,26.97,WNW,292,0.0,0.0,72,0.00,,,0.00,VWS V14.01,2013-02-25 04:54:00,
2013-02-24 21:59:00,21.5,14.2,26.97,WNW,292,0.0,0.0,73,0.00,,,0.00,VWS V14.01,2013-02-25 04:59:00,
2013-02-24 22:00:00,21.5,14.2,26.97,WNW,292,0.0,0.0,73,0.00,,,0.00,VWS V14.01,2013-02-25 05:00:00,
2013-02-24 22:01:00,21.5,14.2,26.97,WNW,292,0.0,0.0,73,0.00,,,0.00,VWS V14.01,2013-02-25 05:01:00,
2013-02-24 22:04:00,21.5,14.2,26.98,WNW,292,0.0,0.0,73,0.00,,,0.00,VWS V14.01,2013-02-25 05:04:00,
2013-02-24 22:05:00,21.3,14.0,26.98,NW,315,1.3,1.3,73,0.00,,,0.00,VWS V14.01,2013-02-25 05:05:00,
2013-02-24 22:10:00,21.3,14.0,26.97,NNW,338,0.0,1.3,73,0.00,,,0.00,VWS V14.01,2013-02-25 05:10:00,
2013-02-24 22:15:00,21.5,14.2,26.98,NNW,338,0.0,0.0,73,0.00,,,0.00,VWS V14.01,2013-02-25 05:15:00,
2013-02-24 22:20:00,21.7,14.7,26.97,WNW,292,0.0,0.0,74,0.00,,,0.00,VWS V14.01,2013-02-25 05:20:00,
2013-02-24 22:25:00,21.3,14.0,26.98,WNW,292,0.0,0.0,73,0.00,,,0.00,VWS V14.01,2013-02-25 05:25:00,
2013-02-24 22:30:00,20.8,13.2,26.98,SSE,158,0.0,0.0,72,0.00,,,0.00,VWS V14.01,2013-02-25 05:30:00,
2013-02-24 22:35:00,19.9,12.3,26.97,SSE,158,0.0,0.0,72,0.00,,,0.00,VWS V14.01,2013-02-25 05:35:00,
2013-02-24 22:40:00,19.5,12.0,26.97,South,180,0.0,0.0,72,0.00,,,0.00,VWS V14.01,2013-02-25 05:40:00,
2013-02-24 22:45:00,19.2,11.7,26.98,South,180,0.0,0.0,72,0.00,,,0.00,VWS V14.01,2013-02-25 05:45:00,
2013-02-24 22:50:00,19.2,11.7,26.97,SSW,202,0.0,0.0,72,0.00,,,0.00,VWS V14.01,2013-02-25 05:50:00,
2013-02-24 22:55:00,19.0,11.8,26.97,SW,225,0.0,0.0,73,0.00,,,0.00,VWS V14.01,2013-02-25 05:55:00,
2013-02-24 23:00:00,19.0,11.8,26.97,WNW,292,0.0,0.0,73,0.00,,,0.00,VWS V14.01,2013-02-25 06:00:00,
2013-02-24 23:05:00,19.0,12.1,26.97,WNW,292,0.0,0.0,74,0.00,,,0.00,VWS V14.01,2013-02-25 06:05:00,
2013-02-24 23:10:00,19.0,12.1,26.96,WNW,292,0.0,0.0,74,0.00,,,0.00,VWS V14.01,2013-02-25 06:10:00,
2013-02-24 23:15:00,18.8,11.9,26.97,WNW,292,0.0,0.0,74,0.00,,,0.00,VWS V14.01,2013-02-25 06:15:00,
2013-02-24 23:20:00,19.0,12.1,26.96,WNW,292,0.0,0.0,74,0.00,,,0.00,VWS V14.01,2013-02-25 06:20:00,
2013-02-24 23:26:00,18.8,11.9,26.96,WNW,292,0.0,0.0,74,0.00,,,0.00,VWS V14.01,2013-02-25 06:26:00,
2013-02-24 23:31:00,18.8,11.9,26.96,WNW,292,0.0,0.0,74,0.00,,,0.00,VWS V14.01,2013-02-25 06:31:00,
2013-02-24 23:36:00,18.6,11.7,26.96,WNW,292,0.0,0.0,74,0.00,,,0.00,VWS V14.01,2013-02-25 06:36:00,
2013-02-24 23:41:00,18.5,11.6,26.96,WNW,292,0.0,0.0,74,0.00,,,0.00,VWS V14.01,2013-02-25 06:41:00,
2013-02-24 23:46:00,18.3,11.7,26.96,WNW,292,0.0,0.0,75,0.00,,,0.00,VWS V14.01,2013-02-25 06:46:00,
2013-02-24 23:51:00,18.5,11.9,26.96,WNW,292,0.0,0.0,75,0.00,,,0.00,VWS V14.01,2013-02-25 06:51:00,
2013-02-24 23:56:00,18.5,11.9,26.96,WNW,292,0.0,0.0,75,0.00,,,0.00,VWS V14.01,2013-02-25 06:56:00,